createdAt,value
2024-01-11T00:00:46.473Z,47.83
2024-01-11T00:03:52.927Z,47.63
2024-01-11T00:06:59.319Z,47.69
2024-01-11T00:10:06.740Z,47.86
2024-01-11T00:13:13.106Z,47.53
2024-01-11T00:16:19.536Z,48.01
2024-01-11T00:19:25.959Z,48.44
2024-01-11T00:22:33.276Z,48.37
2024-01-11T00:25:39.885Z,48.81
2024-01-11T00:28:46.222Z,49.66
2024-01-11T00:31:52.558Z,49.86
2024-01-11T00:34:59.315Z,49.76
2024-01-11T00:38:05.945Z,49.89
2024-01-11T00:41:12.361Z,50.04
2024-01-11T00:44:18.926Z,50.04
2024-01-11T00:47:25.391Z,49.71
2024-01-11T00:50:31.938Z,49.84
2024-01-11T00:53:38.394Z,49.81
2024-01-11T00:56:44.764Z,49.74
2024-01-11T00:59:51.227Z,49.89
2024-01-11T01:02:58.007Z,49.98
2024-01-11T01:06:05.042Z,49.85
2024-01-11T01:09:11.476Z,50.00
2024-01-11T01:12:17.965Z,49.92
2024-01-11T01:15:24.324Z,50.15
2024-01-11T01:18:30.931Z,50.36
2024-01-11T01:21:37.381Z,50.44
2024-01-11T01:24:43.994Z,50.82
2024-01-11T01:27:50.664Z,50.67
2024-01-11T01:30:57.117Z,50.26
2024-01-11T01:34:03.685Z,50.19
2024-01-11T01:37:10.105Z,50.34
2024-01-11T01:40:17.094Z,50.30
2024-01-11T01:43:23.393Z,50.54
2024-01-11T01:46:30.677Z,50.51
2024-01-11T01:49:38.364Z,50.60
2024-01-11T01:52:46.772Z,50.41
2024-01-11T01:55:54.845Z,50.31
2024-01-11T01:59:03.587Z,50.34
2024-01-11T02:02:10.731Z,50.54
2024-01-11T02:05:19.312Z,50.50
2024-01-11T02:08:28.078Z,50.32
2024-01-11T02:11:35.120Z,50.68
2024-01-11T02:14:41.856Z,50.90
2024-01-11T02:17:48.541Z,50.84
2024-01-11T02:20:55.219Z,50.54
2024-01-11T02:24:12.383Z,50.28
2024-01-11T02:27:18.725Z,50.54
2024-01-11T02:30:25.171Z,50.93
2024-01-11T02:33:31.822Z,51.03
2024-01-11T02:36:38.314Z,51.04
2024-01-11T02:39:44.839Z,50.78
2024-01-11T02:42:51.226Z,50.49
2024-01-11T02:46:00.976Z,50.49
2024-01-11T02:49:07.475Z,50.82
2024-01-11T02:52:14.098Z,50.96
2024-01-11T02:55:20.439Z,51.06
2024-01-11T02:58:26.762Z,50.78
2024-01-11T03:01:33.852Z,51.17
2024-01-11T03:04:40.340Z,51.50
2024-01-11T03:07:46.765Z,51.38
2024-01-11T03:10:53.084Z,50.88
2024-01-11T03:13:59.535Z,50.70
2024-01-11T03:17:06.314Z,50.70
2024-01-11T03:20:13.861Z,51.29
2024-01-11T03:23:21.022Z,52.21
2024-01-11T03:26:27.470Z,53.15
2024-01-11T03:29:33.905Z,52.26
2024-01-11T03:32:41.398Z,51.41
2024-01-11T03:35:48.085Z,51.32
2024-01-11T03:38:54.581Z,51.04
2024-01-11T03:42:00.963Z,50.99
2024-01-11T03:45:08.890Z,51.05
2024-01-11T03:48:15.421Z,50.84
2024-01-11T03:51:21.830Z,50.64
2024-01-11T03:54:28.187Z,50.62
2024-01-11T03:57:34.546Z,51.13
2024-01-11T04:00:40.974Z,51.90
2024-01-11T04:03:47.374Z,52.50
2024-01-11T04:06:54.027Z,52.83
2024-01-11T04:10:00.345Z,53.88
2024-01-11T04:13:09.073Z,54.21
2024-01-11T04:16:15.477Z,54.53
2024-01-11T04:19:23.858Z,54.82
2024-01-11T04:22:32.098Z,55.22
2024-01-11T04:25:39.529Z,55.39
2024-01-11T04:28:45.953Z,55.57
2024-01-11T04:31:52.393Z,55.70
2024-01-11T04:34:58.929Z,55.50
2024-01-11T04:38:05.791Z,54.77
2024-01-11T04:41:14.039Z,53.57
2024-01-11T04:44:20.510Z,53.11
2024-01-11T04:47:27.035Z,53.26
2024-01-11T04:50:33.476Z,53.20
2024-01-11T04:53:42.565Z,53.09
2024-01-11T04:56:49.121Z,52.33
2024-01-11T04:59:55.615Z,51.94
2024-01-11T05:03:02.168Z,51.93
2024-01-11T05:06:09.192Z,51.59
2024-01-11T05:09:16.730Z,52.62
2024-01-11T05:12:23.115Z,53.76
2024-01-11T05:15:29.454Z,53.82
2024-01-11T05:18:35.860Z,54.38
2024-01-11T05:21:42.471Z,54.27
2024-01-11T05:24:48.803Z,53.62
2024-01-11T05:27:55.161Z,53.23
2024-01-11T05:31:01.605Z,52.57
2024-01-11T05:34:08.267Z,52.16
2024-01-11T05:37:14.770Z,51.85
2024-01-11T05:40:21.463Z,51.89
2024-01-11T05:43:27.844Z,52.41
2024-01-11T05:46:34.351Z,52.81
2024-01-11T05:49:40.737Z,52.92
2024-01-11T05:52:47.182Z,53.01
2024-01-11T05:55:55.282Z,53.22
2024-01-11T05:59:02.013Z,53.80
2024-01-11T06:02:08.711Z,53.97
2024-01-11T06:05:15.164Z,54.10
2024-01-11T06:08:21.640Z,53.93
2024-01-11T06:11:27.991Z,53.65
2024-01-11T06:14:34.431Z,53.86
2024-01-11T06:17:41.035Z,54.22
2024-01-11T06:20:48.109Z,55.01
2024-01-11T06:23:54.721Z,55.30
2024-01-11T06:27:01.114Z,55.02
2024-01-11T06:30:09.604Z,54.52
2024-01-11T06:33:16.533Z,53.62
2024-01-11T06:36:23.514Z,53.08
2024-01-11T06:39:30.801Z,52.66
2024-01-11T06:42:37.347Z,53.07
2024-01-11T06:45:45.162Z,52.93
2024-01-11T06:48:51.749Z,52.17
2024-01-11T06:51:58.222Z,51.98
2024-01-11T06:55:04.600Z,52.02
2024-01-11T06:58:11.001Z,52.05
2024-01-11T07:01:17.368Z,52.13
2024-01-11T07:04:23.722Z,52.21
2024-01-11T07:07:30.106Z,52.02
2024-01-11T07:10:36.681Z,52.07
2024-01-11T07:13:43.796Z,52.01
2024-01-11T07:16:50.911Z,52.71
2024-01-11T07:19:57.354Z,53.17
2024-01-11T07:23:04.006Z,53.50
2024-01-11T07:26:10.376Z,53.73
2024-01-11T07:29:16.749Z,54.37
2024-01-11T07:32:23.221Z,54.88
2024-01-11T07:35:29.731Z,55.25
2024-01-11T07:38:36.033Z,55.21
2024-01-11T07:41:43.168Z,54.99
2024-01-11T07:44:49.708Z,54.94
2024-01-11T07:47:56.294Z,54.95
2024-01-11T07:51:03.816Z,55.10
2024-01-11T07:54:10.205Z,55.38
2024-01-11T07:57:16.951Z,56.00
2024-01-11T08:00:24.550Z,56.40
2024-01-11T08:03:31.148Z,56.77
2024-01-11T08:06:37.748Z,57.45
2024-01-11T08:09:46.830Z,57.71
2024-01-11T08:12:53.642Z,58.40
2024-01-11T08:16:00.011Z,58.88
2024-01-11T08:19:06.818Z,59.17
2024-01-11T08:22:13.857Z,59.39
2024-01-11T08:25:20.334Z,59.58
2024-01-11T08:28:26.689Z,59.50
2024-01-11T08:31:34.415Z,59.94
2024-01-11T08:34:41.704Z,60.78
2024-01-11T08:37:48.175Z,61.21
2024-01-11T08:40:54.548Z,61.29
2024-01-11T08:44:00.967Z,61.27
2024-01-11T08:47:07.670Z,61.04
2024-01-11T08:50:18.556Z,60.81
2024-01-11T08:53:26.404Z,61.13
2024-01-11T08:56:32.805Z,61.45
2024-01-11T08:59:39.329Z,61.82
2024-01-11T09:02:45.715Z,61.99
2024-01-11T09:05:52.191Z,62.34
2024-01-11T09:08:58.676Z,62.63
2024-01-11T09:12:06.011Z,63.01
2024-01-11T09:15:12.937Z,63.35
2024-01-11T09:18:19.483Z,65.18
2024-01-11T09:21:26.983Z,65.83
2024-01-11T09:24:37.010Z,65.30
2024-01-11T09:27:44.882Z,65.67
2024-01-11T09:30:51.362Z,65.34
2024-01-11T09:33:58.472Z,64.48
2024-01-11T09:37:05.077Z,63.17
2024-01-11T09:40:13.449Z,62.65
2024-01-11T09:43:19.988Z,60.43
2024-01-11T09:46:28.160Z,59.72
2024-01-11T09:49:35.794Z,57.67
2024-01-11T09:52:44.128Z,57.37
2024-01-11T09:55:51.127Z,56.17
2024-01-11T09:58:57.613Z,55.23
2024-01-11T10:02:09.397Z,54.25
2024-01-11T10:05:16.336Z,53.95
2024-01-11T10:08:24.256Z,52.72
2024-01-11T10:11:30.738Z,51.27
2024-01-11T10:14:37.336Z,50.79
2024-01-11T10:17:47.519Z,50.45
2024-01-11T10:20:54.199Z,50.32
2024-01-11T10:24:05.670Z,49.75
2024-01-11T10:27:12.698Z,48.83
2024-01-11T10:30:21.515Z,48.44
2024-01-11T10:33:28.028Z,48.56
2024-01-11T10:36:36.904Z,47.97
2024-01-11T10:39:44.446Z,46.92
2024-01-11T10:42:54.601Z,47.29
2024-01-11T10:46:05.529Z,47.40
2024-01-11T10:49:14.182Z,47.87
2024-01-11T10:52:30.196Z,47.26
2024-01-11T10:55:38.710Z,47.98
2024-01-11T10:58:47.761Z,47.75
2024-01-11T11:01:57.371Z,47.97
2024-01-11T11:05:05.765Z,48.08
2024-01-11T11:08:14.930Z,48.12
2024-01-11T11:11:21.786Z,47.48
2024-01-11T11:14:30.459Z,46.50
2024-01-11T11:17:37.846Z,47.18
2024-01-11T11:20:44.540Z,47.03
2024-01-11T11:23:51.566Z,47.12
2024-01-11T11:26:58.638Z,46.32
2024-01-11T11:30:05.402Z,46.28
2024-01-11T11:33:20.133Z,46.55
2024-01-11T11:36:32.667Z,46.28
2024-01-11T11:39:39.199Z,45.96
2024-01-11T11:42:46.238Z,45.68
2024-01-11T11:45:54.384Z,45.85
2024-01-11T11:49:01.382Z,46.20
2024-01-11T11:52:08.089Z,45.63
2024-01-11T11:55:16.482Z,46.06
2024-01-11T11:58:23.050Z,46.97
2024-01-11T12:01:29.465Z,46.52
2024-01-11T12:04:36.041Z,45.43
2024-01-11T12:07:42.529Z,45.33
2024-01-11T12:10:48.947Z,45.88
2024-01-11T12:13:58.927Z,45.95
2024-01-11T12:17:06.383Z,46.42
2024-01-11T12:20:15.742Z,45.62
2024-01-11T12:23:22.330Z,46.06
2024-01-11T12:26:28.962Z,45.93
2024-01-11T12:29:43.819Z,46.11
2024-01-11T12:32:56.134Z,46.72
2024-01-11T12:36:02.565Z,46.58
2024-01-11T12:39:07.655Z,46.42
2024-01-11T12:42:15.301Z,46.13
2024-01-11T12:45:21.978Z,45.76
2024-01-11T12:48:28.597Z,46.01
2024-01-11T12:51:38.205Z,46.32
2024-01-11T12:54:45.637Z,45.47
2024-01-11T12:57:52.093Z,46.23
2024-01-11T13:00:58.919Z,45.53
2024-01-11T13:04:05.483Z,45.59
2024-01-11T13:07:13.561Z,46.79
2024-01-11T13:10:20.103Z,45.88
2024-01-11T13:13:27.545Z,45.64
2024-01-11T13:16:34.448Z,45.93
2024-01-11T13:19:40.964Z,45.95
2024-01-11T13:22:47.552Z,44.64
2024-01-11T13:25:54.397Z,45.92
2024-01-11T13:29:00.867Z,45.38
2024-01-11T13:32:08.000Z,45.25
2024-01-11T13:35:15.243Z,45.33
2024-01-11T13:38:25.139Z,44.74
2024-01-11T13:41:32.092Z,44.85
2024-01-11T13:44:38.672Z,44.65
2024-01-11T13:47:45.400Z,43.71
2024-01-11T13:50:51.923Z,43.85
2024-01-11T13:53:59.030Z,44.49
2024-01-11T13:57:05.759Z,43.87
2024-01-11T14:00:14.810Z,44.58
2024-01-11T14:03:21.604Z,44.29
2024-01-11T14:06:28.297Z,44.65
2024-01-11T14:09:34.774Z,45.24
2024-01-11T14:12:41.648Z,45.72
2024-01-11T14:15:49.409Z,45.54
2024-01-11T14:18:56.083Z,45.24
2024-01-11T14:22:02.491Z,45.78
2024-01-11T14:25:12.286Z,46.82
2024-01-11T14:28:19.277Z,46.35
2024-01-11T14:31:25.752Z,47.43
2024-01-11T14:34:32.374Z,47.26
2024-01-11T14:37:40.838Z,47.91
2024-01-11T14:40:47.622Z,48.28
2024-01-11T14:43:55.984Z,48.25
2024-01-11T14:47:02.683Z,48.37
2024-01-11T14:50:12.574Z,48.33
2024-01-11T14:53:19.742Z,48.70
2024-01-11T14:56:26.319Z,49.11
2024-01-11T14:59:33.290Z,49.92
2024-01-11T15:02:39.826Z,50.36
2024-01-11T15:05:46.583Z,50.76
2024-01-11T15:08:53.627Z,51.59
2024-01-11T15:12:01.408Z,52.59
2024-01-11T15:15:10.640Z,53.03
2024-01-11T15:18:17.139Z,53.90
2024-01-11T15:21:23.771Z,54.31
2024-01-11T15:24:31.072Z,54.45
2024-01-11T15:27:38.048Z,55.14
2024-01-11T15:30:44.795Z,55.93
2024-01-11T15:33:51.518Z,56.37
2024-01-11T15:36:58.300Z,57.29
2024-01-11T15:40:05.254Z,58.03
2024-01-11T15:43:11.613Z,58.85
2024-01-11T15:46:16.286Z,58.83
2024-01-11T15:49:22.737Z,59.18
2024-01-11T15:52:29.105Z,59.32
2024-01-11T15:55:35.521Z,59.41
2024-01-11T15:58:41.933Z,59.63
2024-01-11T16:01:56.647Z,59.53
2024-01-11T16:05:12.298Z,59.40
2024-01-11T16:08:18.882Z,59.42
2024-01-11T16:11:26.193Z,59.52
2024-01-11T16:14:32.725Z,59.59
2024-01-11T16:17:39.624Z,59.63
2024-01-11T16:20:46.304Z,59.67
2024-01-11T16:23:53.486Z,59.89
2024-01-11T16:27:00.620Z,60.23
2024-01-11T16:30:08.918Z,60.43
2024-01-11T16:33:15.776Z,60.63
2024-01-11T16:36:22.287Z,60.92
2024-01-11T16:39:28.630Z,61.27
2024-01-11T16:42:33.866Z,61.42
2024-01-11T16:45:41.610Z,61.66
2024-01-11T16:48:48.469Z,61.89
2024-01-11T16:51:54.893Z,61.90
2024-01-11T16:55:01.364Z,61.97
2024-01-11T16:58:07.989Z,61.93
2024-01-11T17:01:14.826Z,62.11
2024-01-11T17:04:21.314Z,62.20
2024-01-11T17:07:27.769Z,62.16
2024-01-11T17:10:34.728Z,62.16
2024-01-11T17:13:41.119Z,62.16
2024-01-11T17:16:47.401Z,62.42
2024-01-11T17:19:51.919Z,62.49
2024-01-11T17:22:58.523Z,62.73
2024-01-11T17:26:07.271Z,62.84
2024-01-11T17:29:13.766Z,62.90
2024-01-11T17:32:20.749Z,62.93
2024-01-11T17:35:27.348Z,62.90
2024-01-11T17:38:33.843Z,62.76
2024-01-11T17:41:44.261Z,62.65
2024-01-11T17:44:50.983Z,62.64
2024-01-11T17:47:58.314Z,62.48
2024-01-11T17:51:05.476Z,62.51
2024-01-11T17:54:11.980Z,62.32
2024-01-11T17:57:18.460Z,62.37
2024-01-11T18:00:26.195Z,62.39
2024-01-11T18:03:32.584Z,62.35
2024-01-11T18:06:39.944Z,62.48
2024-01-11T18:09:46.518Z,62.79
2024-01-11T18:12:52.902Z,62.71
2024-01-11T18:15:59.350Z,62.96
2024-01-11T18:19:06.715Z,63.05
2024-01-11T18:22:13.169Z,63.60
2024-01-11T18:25:19.878Z,63.73
2024-01-11T18:28:26.411Z,63.83
2024-01-11T18:31:33.096Z,63.84
2024-01-11T18:34:39.436Z,63.69
2024-01-11T18:37:45.918Z,63.74
2024-01-11T18:40:52.446Z,63.90
2024-01-11T18:43:58.675Z,64.22
2024-01-11T18:47:03.350Z,63.94
2024-01-11T18:50:11.614Z,64.15
2024-01-11T18:53:18.754Z,63.90
2024-01-11T18:56:25.269Z,64.02
2024-01-11T18:59:31.691Z,64.42
2024-01-11T19:02:38.354Z,64.42
2024-01-11T19:05:45.283Z,64.70
2024-01-11T19:08:51.966Z,64.83
2024-01-11T19:11:59.768Z,64.92
2024-01-11T19:15:07.201Z,64.96
2024-01-11T19:18:14.655Z,64.87
2024-01-11T19:21:38.116Z,64.92
2024-01-11T19:24:44.386Z,64.89
2024-01-11T19:27:49.892Z,64.87
2024-01-11T19:30:57.216Z,64.98
2024-01-11T19:34:03.650Z,64.81
2024-01-11T19:37:11.618Z,64.84
2024-01-11T19:40:19.122Z,64.93
2024-01-11T19:43:25.533Z,64.86
2024-01-11T19:46:33.889Z,64.78
2024-01-11T19:49:40.334Z,64.82
2024-01-11T19:52:46.759Z,64.84
2024-01-11T19:55:58.112Z,65.15
2024-01-11T19:59:02.711Z,65.29
2024-01-11T20:02:09.398Z,65.54
2024-01-11T20:05:16.032Z,65.32
2024-01-11T20:08:25.890Z,65.36
2024-01-11T20:11:32.534Z,65.93
2024-01-11T20:14:40.903Z,65.30
2024-01-11T20:17:47.493Z,65.12
2024-01-11T20:20:54.358Z,65.12
2024-01-11T20:24:00.813Z,65.10
2024-01-11T20:27:07.722Z,64.74
2024-01-11T20:30:15.095Z,64.73
2024-01-11T20:33:21.679Z,64.39
2024-01-11T20:36:28.302Z,64.43
2024-01-11T20:39:34.671Z,64.19
2024-01-11T20:42:41.079Z,64.22
2024-01-11T20:45:47.731Z,64.27
2024-01-11T20:48:54.381Z,64.21
2024-01-11T20:52:02.050Z,64.28
2024-01-11T20:55:09.617Z,64.57
2024-01-11T20:58:16.016Z,64.58
2024-01-11T21:01:22.554Z,64.68
2024-01-11T21:04:28.850Z,64.79
2024-01-11T21:07:33.440Z,64.63
2024-01-11T21:10:39.816Z,64.76
2024-01-11T21:13:46.132Z,64.87
2024-01-11T21:16:50.747Z,64.76
2024-01-11T21:19:57.165Z,64.69
2024-01-11T21:23:38.026Z,64.74
2024-01-11T21:26:45.460Z,64.74
2024-01-11T21:29:51.861Z,64.77
2024-01-11T21:32:58.447Z,64.80
2024-01-11T21:36:05.281Z,64.86
2024-01-11T21:39:11.672Z,64.79
2024-01-11T21:42:18.053Z,64.66
2024-01-11T21:45:25.921Z,64.56
2024-01-11T21:48:32.610Z,64.35
2024-01-11T21:51:39.254Z,64.55
2024-01-11T21:54:45.621Z,64.63
2024-01-11T21:57:51.997Z,64.82
2024-01-11T22:00:58.970Z,64.85
2024-01-11T22:04:07.181Z,64.89
2024-01-11T22:07:13.791Z,64.92
2024-01-11T22:10:20.663Z,65.23
2024-01-11T22:13:27.242Z,65.46
2024-01-11T22:16:34.977Z,65.48
2024-01-11T22:19:42.903Z,65.38
2024-01-11T22:22:49.406Z,65.10
2024-01-11T22:25:55.695Z,65.15
2024-01-11T22:29:00.763Z,64.94
2024-01-11T22:32:08.014Z,64.90
2024-01-11T22:35:14.585Z,64.84
2024-01-11T22:38:20.968Z,64.90
2024-01-11T22:41:27.294Z,64.87
2024-01-11T22:44:36.474Z,64.90
2024-01-11T22:47:43.468Z,64.85
2024-01-11T22:50:49.916Z,64.83
2024-01-11T22:53:56.371Z,64.80
2024-01-11T22:57:02.742Z,64.77
2024-01-11T23:00:24.299Z,64.82
2024-01-11T23:03:30.792Z,64.89
2024-01-11T23:06:37.917Z,64.82
2024-01-11T23:09:44.701Z,64.55
2024-01-11T23:12:51.048Z,64.70
2024-01-11T23:15:57.443Z,64.75
2024-01-11T23:19:04.002Z,64.43
2024-01-11T23:22:10.319Z,64.37
2024-01-11T23:25:15.064Z,64.20
2024-01-11T23:28:22.911Z,64.16
2024-01-11T23:31:29.587Z,64.14
2024-01-11T23:34:35.978Z,63.99
2024-01-11T23:37:42.423Z,64.08
2024-01-11T23:40:48.751Z,63.88
2024-01-11T23:43:55.106Z,63.89
2024-01-11T23:46:59.734Z,64.21
2024-01-11T23:50:07.392Z,64.06
2024-01-11T23:53:13.983Z,63.91
2024-01-11T23:56:20.574Z,64.03
2024-01-11T23:59:27.078Z,64.22
